createdAt,value
2023-05-06T00:03:47.967Z,12.30
2023-05-06T00:06:15.067Z,12.20
2023-05-06T00:13:37.875Z,12.20
2023-05-06T00:16:04.863Z,12.20
2023-05-06T00:18:31.651Z,12.10
2023-05-06T00:23:25.482Z,12.10
2023-05-06T00:25:54.262Z,12.10
2023-05-06T00:30:48.047Z,12.10
2023-05-06T00:35:42.048Z,12.00
2023-05-06T00:38:11.205Z,12.00
2023-05-06T00:43:05.537Z,11.90
2023-05-06T00:48:00.065Z,11.90
2023-05-06T00:50:28.324Z,11.80
2023-05-06T00:52:56.955Z,11.80
2023-05-06T00:57:52.127Z,11.70
2023-05-06T01:00:20.339Z,11.70
2023-05-06T01:02:48.385Z,11.60
2023-05-06T01:05:17.754Z,11.60
2023-05-06T01:08:00.459Z,11.60
2023-05-06T01:10:31.607Z,11.50
2023-05-06T01:15:38.307Z,11.50
2023-05-06T01:18:10.209Z,11.40
2023-05-06T01:20:38.642Z,11.40
2023-05-06T01:23:15.346Z,11.40
2023-05-06T01:25:42.316Z,11.40
2023-05-06T01:28:11.433Z,11.40
2023-05-06T01:30:53.081Z,11.30
2023-05-06T01:33:33.898Z,11.30
2023-05-06T01:36:32.081Z,11.30
2023-05-06T01:39:19.501Z,11.30
2023-05-06T01:41:48.945Z,11.20
2023-05-06T01:44:17.237Z,11.20
2023-05-06T01:46:46.118Z,11.20
2023-05-06T01:49:14.823Z,11.20
2023-05-06T01:51:46.794Z,11.10
2023-05-06T01:56:41.152Z,11.20
2023-05-06T02:01:35.319Z,11.10
2023-05-06T02:06:29.402Z,11.10
2023-05-06T02:08:56.105Z,11.00
2023-05-06T02:16:17.271Z,11.00
2023-05-06T02:18:44.085Z,11.00
2023-05-06T02:23:37.983Z,10.90
2023-05-06T02:28:31.886Z,10.90
2023-05-06T02:30:58.813Z,10.80
2023-05-06T02:38:21.227Z,10.70
2023-05-06T02:43:15.372Z,10.70
2023-05-06T02:48:09.134Z,10.70
2023-05-06T02:50:36.212Z,10.50
2023-05-06T02:55:30.525Z,10.60
2023-05-06T02:57:57.206Z,10.60
2023-05-06T03:02:51.034Z,10.40
2023-05-06T03:05:17.929Z,10.50
2023-05-06T03:10:11.729Z,10.40
2023-05-06T03:15:07.107Z,10.40
2023-05-06T03:20:01.105Z,10.30
2023-05-06T03:22:27.773Z,10.30
2023-05-06T03:24:54.463Z,10.30
2023-05-06T03:27:21.099Z,10.30
2023-05-06T03:32:14.919Z,10.20
2023-05-06T03:39:35.964Z,10.20
2023-05-06T03:44:29.765Z,10.10
2023-05-06T03:49:23.643Z,10.10
2023-05-06T03:54:17.948Z,10.00
2023-05-06T04:04:06.127Z,10.00
2023-05-06T04:11:29.574Z,10.00
2023-05-06T04:13:56.480Z,9.90
2023-05-06T04:18:51.611Z,9.90
2023-05-06T04:21:18.490Z,10.00
2023-05-06T04:23:45.156Z,10.00
2023-05-06T04:33:35.684Z,10.10
2023-05-06T04:38:31.976Z,10.20
2023-05-06T04:43:27.711Z,10.20
2023-05-06T04:48:22.876Z,10.30
2023-05-06T04:50:50.653Z,10.30
2023-05-06T04:53:17.550Z,10.30
2023-05-06T04:55:44.228Z,10.40
2023-05-06T05:00:38.015Z,10.40
2023-05-06T05:03:04.864Z,10.40
2023-05-06T05:05:34.179Z,10.50
2023-05-06T05:08:00.818Z,10.50
2023-05-06T05:10:27.466Z,10.50
2023-05-06T05:15:21.469Z,10.60
2023-05-06T05:25:10.273Z,10.80
2023-05-06T05:27:37.161Z,10.90
2023-05-06T05:30:04.144Z,11.00
2023-05-06T05:34:58.141Z,11.20
2023-05-06T05:44:46.220Z,11.50
2023-05-06T05:47:12.981Z,11.60
2023-05-06T05:54:34.912Z,13.60
2023-05-06T05:57:02.456Z,14.80
2023-05-06T05:59:29.413Z,15.80
2023-05-06T06:01:56.105Z,15.90
2023-05-06T06:04:22.962Z,16.50
2023-05-06T06:06:49.764Z,17.60
2023-05-06T06:09:17.391Z,17.70
2023-05-06T06:11:44.185Z,18.00
2023-05-06T06:14:11.240Z,18.10
2023-05-06T06:16:38.098Z,18.50
2023-05-06T06:19:04.975Z,18.80
2023-05-06T06:21:31.701Z,19.20
2023-05-06T06:23:58.496Z,19.70
2023-05-06T06:26:25.274Z,20.10
2023-05-06T06:28:51.910Z,19.90
2023-05-06T06:31:18.753Z,20.30
2023-05-06T06:33:45.585Z,19.70
2023-05-06T06:36:12.252Z,19.90
2023-05-06T06:38:39.089Z,19.50
2023-05-06T06:41:06.003Z,18.30
2023-05-06T06:43:32.739Z,17.80
2023-05-06T06:48:26.727Z,16.30
2023-05-06T06:50:53.404Z,16.00
2023-05-06T06:53:23.506Z,16.00
2023-05-06T06:55:50.169Z,15.60
2023-05-06T06:58:16.903Z,15.50
2023-05-06T07:00:43.536Z,15.50
2023-05-06T07:03:11.019Z,15.40
2023-05-06T07:05:37.717Z,15.50
2023-05-06T07:08:04.437Z,15.50
2023-05-06T07:10:31.149Z,15.70
2023-05-06T07:12:58.395Z,15.60
2023-05-06T07:15:25.647Z,15.60
2023-05-06T07:17:52.413Z,15.70
2023-05-06T07:20:19.117Z,15.80
2023-05-06T07:22:45.897Z,15.90
2023-05-06T07:25:12.926Z,16.00
2023-05-06T07:27:39.816Z,16.10
2023-05-06T07:30:07.185Z,16.20
2023-05-06T07:32:33.849Z,16.30
2023-05-06T07:35:00.620Z,16.30
2023-05-06T07:37:27.298Z,16.30
2023-05-06T07:39:53.966Z,16.40
2023-05-06T07:42:20.604Z,16.40
2023-05-06T07:44:47.262Z,16.60
2023-05-06T07:47:27.293Z,16.70
2023-05-06T07:49:54.560Z,16.60
2023-05-06T07:52:21.863Z,16.60
2023-05-06T07:54:48.607Z,16.70
2023-05-06T07:57:16.001Z,16.70
2023-05-06T07:59:44.029Z,16.90
2023-05-06T08:02:10.851Z,17.00
2023-05-06T08:04:37.831Z,16.90
2023-05-06T08:07:04.630Z,16.90
2023-05-06T08:09:31.456Z,16.90
2023-05-06T08:11:58.345Z,17.10
2023-05-06T08:14:28.689Z,17.30
2023-05-06T08:16:55.533Z,17.30
2023-05-06T08:19:22.856Z,17.30
2023-05-06T08:21:50.394Z,17.40
2023-05-06T08:24:17.111Z,17.50
2023-05-06T08:26:43.816Z,17.60
2023-05-06T08:29:10.474Z,17.80
2023-05-06T08:31:37.254Z,17.70
2023-05-06T08:34:03.952Z,17.70
2023-05-06T08:36:30.826Z,17.80
2023-05-06T08:38:57.743Z,17.90
2023-05-06T08:41:26.226Z,18.10
2023-05-06T08:43:55.052Z,18.20
2023-05-06T08:46:22.806Z,18.30
2023-05-06T08:48:49.553Z,18.30
2023-05-06T08:51:16.868Z,18.30
2023-05-06T08:53:48.524Z,18.30
2023-05-06T08:56:16.397Z,18.30
2023-05-06T08:58:48.294Z,18.40
2023-05-06T09:01:16.028Z,18.30
2023-05-06T09:03:44.090Z,18.30
2023-05-06T09:06:10.966Z,18.40
2023-05-06T09:08:37.662Z,18.30
2023-05-06T09:11:23.128Z,18.60
2023-05-06T09:13:50.787Z,18.60
2023-05-06T09:16:31.649Z,18.90
2023-05-06T09:18:59.450Z,18.90
2023-05-06T09:21:34.530Z,19.00
2023-05-06T09:24:02.405Z,19.10
2023-05-06T09:26:31.359Z,19.00
2023-05-06T09:28:59.131Z,18.70
2023-05-06T09:31:27.612Z,18.80
2023-05-06T09:33:56.442Z,18.70
2023-05-06T09:36:27.412Z,18.90
2023-05-06T09:38:55.642Z,18.90
2023-05-06T09:41:25.225Z,19.00
2023-05-06T09:43:56.575Z,19.20
2023-05-06T09:46:24.587Z,19.00
2023-05-06T09:48:53.362Z,19.20
2023-05-06T09:51:20.934Z,19.30
2023-05-06T09:53:48.680Z,19.50
2023-05-06T09:56:16.473Z,19.40
2023-05-06T09:58:44.538Z,19.60
2023-05-06T10:01:15.193Z,19.90
2023-05-06T10:03:47.031Z,20.20
2023-05-06T10:06:14.080Z,20.30
2023-05-06T10:11:08.638Z,20.40
2023-05-06T10:13:36.834Z,20.10
2023-05-06T10:16:04.663Z,20.40
2023-05-06T10:21:00.680Z,20.60
2023-05-06T10:23:49.101Z,20.70
2023-05-06T10:26:19.637Z,20.80
2023-05-06T10:28:49.538Z,20.70
2023-05-06T10:31:16.918Z,21.20
2023-05-06T10:33:47.536Z,21.40
2023-05-06T10:36:20.432Z,21.50
2023-05-06T10:38:54.876Z,21.60
2023-05-06T10:41:23.270Z,21.80
2023-05-06T10:43:56.743Z,21.70
2023-05-06T10:46:26.194Z,21.40
2023-05-06T10:49:05.535Z,21.50
2023-05-06T10:51:33.383Z,21.60
2023-05-06T10:54:02.514Z,21.70
2023-05-06T10:56:52.345Z,21.70
2023-05-06T10:59:24.655Z,22.00
2023-05-06T11:02:02.660Z,22.10
2023-05-06T11:04:32.409Z,22.10
2023-05-06T11:07:21.031Z,22.30
2023-05-06T11:09:56.396Z,22.40
2023-05-06T11:17:32.316Z,22.40
2023-05-06T11:20:25.315Z,22.70
2023-05-06T11:22:52.999Z,22.70
2023-05-06T11:25:41.257Z,22.80
2023-05-06T11:28:12.660Z,22.80
2023-05-06T11:30:42.180Z,22.70
2023-05-06T11:33:19.581Z,22.40
2023-05-06T11:35:46.348Z,22.80
2023-05-06T11:40:42.569Z,22.90
2023-05-06T11:43:13.931Z,22.90
2023-05-06T11:45:50.801Z,22.90
2023-05-06T11:48:18.206Z,23.00
2023-05-06T11:50:49.286Z,22.80
2023-05-06T11:53:22.548Z,22.70
2023-05-06T11:55:51.674Z,22.50
2023-05-06T11:58:21.000Z,22.40
2023-05-06T12:00:54.622Z,22.70
2023-05-06T12:03:22.099Z,22.80
2023-05-06T12:05:50.268Z,23.10
2023-05-06T12:08:27.789Z,22.80
2023-05-06T12:10:57.864Z,23.10
2023-05-06T12:13:24.711Z,23.00
2023-05-06T12:18:18.822Z,23.10
2023-05-06T12:23:16.101Z,22.70
2023-05-06T12:25:46.915Z,22.90
2023-05-06T12:28:20.939Z,23.00
2023-05-06T12:30:47.927Z,23.30
2023-05-06T12:35:41.773Z,23.30
2023-05-06T12:38:13.571Z,23.20
2023-05-06T12:40:41.295Z,23.30
2023-05-06T12:43:08.815Z,23.20
2023-05-06T12:45:35.919Z,22.90
2023-05-06T12:48:03.896Z,22.90
2023-05-06T12:50:34.894Z,23.30
2023-05-06T12:53:03.288Z,23.40
2023-05-06T12:55:34.319Z,23.50
2023-05-06T12:58:01.151Z,23.70
2023-05-06T13:02:55.058Z,23.50
2023-05-06T13:05:21.864Z,23.50
2023-05-06T13:12:43.201Z,23.70
2023-05-06T13:17:37.465Z,23.70
2023-05-06T13:20:05.470Z,23.60
2023-05-06T13:27:41.026Z,23.40
2023-05-06T13:30:08.900Z,23.30
2023-05-06T13:32:35.811Z,23.10
2023-05-06T13:42:24.513Z,22.30
2023-05-06T13:47:18.345Z,22.20
2023-05-06T13:49:45.165Z,22.10
2023-05-06T13:52:11.856Z,21.90
2023-05-06T13:54:38.608Z,21.90
2023-05-06T13:59:32.421Z,21.90
2023-05-06T14:01:59.728Z,22.00
2023-05-06T14:06:53.727Z,21.40
2023-05-06T14:11:47.644Z,20.60
2023-05-06T14:19:09.390Z,19.50
2023-05-06T14:21:36.133Z,19.20
2023-05-06T14:28:59.511Z,18.60
2023-05-06T14:36:20.609Z,18.00
2023-05-06T14:41:14.491Z,17.80
2023-05-06T14:43:41.170Z,17.60
2023-05-06T14:48:34.936Z,17.60
2023-05-06T14:55:57.147Z,17.50
2023-05-06T14:58:23.958Z,17.50
2023-05-06T15:03:17.839Z,17.60
2023-05-06T15:08:11.955Z,17.60
2023-05-06T15:13:05.807Z,17.60
2023-05-06T15:15:32.520Z,17.60
2023-05-06T15:25:33.540Z,17.60
2023-05-06T15:28:02.047Z,17.70
2023-05-06T15:30:28.758Z,17.70
2023-05-06T15:32:55.533Z,17.70
2023-05-06T15:35:22.685Z,17.70
2023-05-06T15:37:49.386Z,17.70
2023-05-06T15:42:43.690Z,17.50
2023-05-06T15:45:12.143Z,17.60
2023-05-06T15:47:38.959Z,17.50
2023-05-06T15:52:51.836Z,17.50
2023-05-06T16:00:13.922Z,17.60
2023-05-06T16:02:41.135Z,17.60
2023-05-06T16:07:36.663Z,17.60
2023-05-06T16:10:03.853Z,17.70
2023-05-06T16:12:32.583Z,17.60
2023-05-06T16:15:00.118Z,17.70
2023-05-06T16:17:26.919Z,17.70
2023-05-06T16:42:02.239Z,18.20
2023-05-06T16:44:29.257Z,18.20
2023-05-06T16:46:56.374Z,18.10
2023-05-06T16:49:24.038Z,18.00
2023-05-06T16:54:17.860Z,17.90
2023-05-06T17:01:49.178Z,17.80
2023-05-06T17:04:16.686Z,17.80
2023-05-06T17:06:43.532Z,17.80
2023-05-06T17:09:10.860Z,17.80
2023-05-06T17:14:04.970Z,17.80
2023-05-06T17:21:27.797Z,17.70
2023-05-06T17:26:22.315Z,17.50
2023-05-06T17:28:49.158Z,17.40
2023-05-06T17:33:44.652Z,17.10
2023-05-06T17:36:18.492Z,17.00
2023-05-06T17:41:12.663Z,16.80
2023-05-06T17:43:39.579Z,16.60
2023-05-06T17:46:08.289Z,16.60
2023-05-06T17:48:35.708Z,16.50
2023-05-06T17:51:02.859Z,16.50
2023-05-06T17:58:24.896Z,16.40
2023-05-06T18:00:51.974Z,16.40
2023-05-06T18:03:18.704Z,16.40
2023-05-06T18:05:46.295Z,16.40
2023-05-06T18:10:41.330Z,16.30
2023-05-06T18:15:35.680Z,16.20
2023-05-06T18:22:58.805Z,16.20
2023-05-06T18:27:52.594Z,16.20
2023-05-06T18:35:16.902Z,16.10
2023-05-06T18:40:11.111Z,16.10
2023-05-06T18:45:06.851Z,16.10
2023-05-06T18:47:33.759Z,16.10
2023-05-06T18:52:27.828Z,16.00
2023-05-06T18:59:49.222Z,16.00
2023-05-06T19:04:43.645Z,16.00
2023-05-06T19:07:11.126Z,16.00
2023-05-06T19:17:02.870Z,16.00
2023-05-06T19:24:24.233Z,15.80
2023-05-06T19:31:45.204Z,15.80
2023-05-06T19:36:38.986Z,15.80
2023-05-06T19:39:05.860Z,15.80
2023-05-06T19:51:21.488Z,15.70
2023-05-06T19:53:49.023Z,15.80
2023-05-06T19:56:17.155Z,15.80
2023-05-06T19:58:44.279Z,15.70
2023-05-06T20:03:39.057Z,15.70
2023-05-06T20:06:06.972Z,15.70
2023-05-06T20:13:28.634Z,15.60
2023-05-06T20:23:18.278Z,15.50
2023-05-06T20:25:45.014Z,15.50
2023-05-06T20:28:11.904Z,15.50
2023-05-06T20:33:06.036Z,15.40
2023-05-06T20:35:37.938Z,15.40
2023-05-06T20:40:35.683Z,15.50
2023-05-06T20:47:58.219Z,15.40
2023-05-06T21:00:17.891Z,15.30
2023-05-06T21:05:12.286Z,15.20
2023-05-06T21:07:39.264Z,15.10
2023-05-06T21:10:06.419Z,15.10
2023-05-06T21:12:33.606Z,15.10
2023-05-06T21:22:24.000Z,14.90
2023-05-06T21:24:51.208Z,14.80
2023-05-06T21:29:45.156Z,14.80
2023-05-06T21:37:06.069Z,14.70
2023-05-06T21:39:32.820Z,14.60
2023-05-06T21:41:59.608Z,14.60
2023-05-06T21:51:49.239Z,14.40
2023-05-06T21:54:17.105Z,14.40
2023-05-06T21:56:43.881Z,14.40
2023-05-06T21:59:10.865Z,14.40
2023-05-06T22:04:11.039Z,14.40
2023-05-06T22:06:38.569Z,14.40
2023-05-06T22:09:09.180Z,14.40
2023-05-06T22:11:37.928Z,14.30
2023-05-06T22:21:36.388Z,14.20
2023-05-06T22:26:30.277Z,14.10
2023-05-06T22:31:24.756Z,14.10
2023-05-06T22:33:55.186Z,14.20
2023-05-06T22:38:49.162Z,14.10
2023-05-06T22:41:17.358Z,14.10
2023-05-06T22:43:44.080Z,14.20
2023-05-06T22:46:10.819Z,14.20
2023-05-06T22:51:04.901Z,14.20
2023-05-06T22:58:26.015Z,14.20
2023-05-06T23:00:52.718Z,14.20
2023-05-06T23:03:19.595Z,14.20
2023-05-06T23:05:46.398Z,14.20
2023-05-06T23:08:13.132Z,14.20
2023-05-06T23:10:39.935Z,14.30
2023-05-06T23:13:07.240Z,14.30
2023-05-06T23:15:34.124Z,14.30
2023-05-06T23:18:01.364Z,14.30
2023-05-06T23:20:28.114Z,14.30
2023-05-06T23:22:54.822Z,14.30
2023-05-06T23:32:42.947Z,14.30
2023-05-06T23:37:37.336Z,14.30
2023-05-06T23:47:27.003Z,14.40
2023-05-06T23:52:21.291Z,14.40
2023-05-06T23:54:48.016Z,14.40
2023-05-06T23:59:42.135Z,14.30
